createdAt,value
2022-10-01T00:01:15.160Z,95481.00
2022-10-01T00:03:45.217Z,95476.41
2022-10-01T00:06:12.093Z,95471.33
2022-10-01T00:08:41.833Z,95471.36
2022-10-01T00:11:14.484Z,95479.73
2022-10-01T00:13:43.178Z,95475.77
2022-10-01T00:16:17.558Z,95479.98
2022-10-01T00:18:46.695Z,95475.84
2022-10-01T00:21:16.781Z,95473.77
2022-10-01T00:23:44.006Z,95469.11
2022-10-01T00:26:20.712Z,95469.13
2022-10-01T00:28:53.148Z,95464.14
2022-10-01T00:31:20.719Z,95463.80
2022-10-01T00:33:48.369Z,95461.02
2022-10-01T00:36:15.177Z,95457.72
2022-10-01T00:38:42.160Z,95453.91
2022-10-01T00:41:09.595Z,95447.77
2022-10-01T00:43:42.406Z,95439.98
2022-10-01T00:46:20.236Z,95441.38
2022-10-01T00:49:10.954Z,95447.34
2022-10-01T00:51:43.580Z,95443.89
2022-10-01T00:54:24.071Z,95438.49
2022-10-01T00:56:55.010Z,95440.59
2022-10-01T00:59:21.985Z,95439.84
2022-10-01T01:01:49.143Z,95444.27
2022-10-01T01:04:16.490Z,95446.37
2022-10-01T01:06:56.041Z,95446.23
2022-10-01T01:09:32.309Z,95441.30
2022-10-01T01:12:14.280Z,95441.41
2022-10-01T01:14:57.456Z,95440.36
2022-10-01T01:17:37.590Z,95440.15
2022-10-01T01:20:37.179Z,95443.27
2022-10-01T01:23:16.306Z,95446.90
2022-10-01T01:26:04.919Z,95447.33
2022-10-01T01:28:37.420Z,95446.95
2022-10-01T01:31:13.967Z,95442.00
2022-10-01T01:33:45.402Z,95433.44
2022-10-01T01:36:19.926Z,95436.27
2022-10-01T01:38:56.593Z,95434.36
2022-10-01T01:41:28.920Z,95435.38
2022-10-01T01:44:00.362Z,95434.25
2022-10-01T01:46:33.388Z,95433.48
2022-10-01T01:49:03.930Z,95429.98
2022-10-01T01:51:41.232Z,95434.14
2022-10-01T01:54:09.029Z,95430.92
2022-10-01T01:56:36.572Z,95427.79
2022-10-01T01:59:03.996Z,95421.90
2022-10-01T02:01:41.890Z,95413.61
2022-10-01T02:04:15.246Z,95403.96
2022-10-01T02:07:17.019Z,95409.00
2022-10-01T02:10:18.781Z,95405.11
2022-10-01T02:13:07.949Z,95407.44
2022-10-01T02:16:03.696Z,95408.73
2022-10-01T02:18:36.340Z,95409.77
2022-10-01T02:21:22.147Z,95424.15
2022-10-01T02:24:05.723Z,95427.73
2022-10-01T02:26:37.652Z,95430.02
2022-10-01T02:29:10.849Z,95432.46
2022-10-01T02:31:39.191Z,95432.94
2022-10-01T02:34:12.415Z,95435.08
2022-10-01T02:36:41.868Z,95430.03
2022-10-01T02:39:10.036Z,95432.03
2022-10-01T02:41:37.090Z,95440.22
2022-10-01T02:44:14.436Z,95442.00
2022-10-01T02:46:58.842Z,95440.07
2022-10-01T02:49:30.745Z,95443.05
2022-10-01T02:52:03.896Z,95441.60
2022-10-01T02:54:36.195Z,95441.35
2022-10-01T02:57:21.715Z,95439.54
2022-10-01T02:59:52.960Z,95434.08
2022-10-01T03:02:22.052Z,95431.91
2022-10-01T03:04:49.008Z,95429.45
2022-10-01T03:07:16.317Z,95435.15
2022-10-01T03:09:43.428Z,95435.86
2022-10-01T03:12:10.699Z,95432.06
2022-10-01T03:14:38.863Z,95430.77
2022-10-01T03:17:07.685Z,95433.11
2022-10-01T03:19:34.566Z,95435.56
2022-10-01T03:22:01.894Z,95429.77
2022-10-01T03:24:29.309Z,95430.13
2022-10-01T03:26:56.660Z,95433.70
2022-10-01T03:29:24.866Z,95428.96
2022-10-01T03:31:52.651Z,95432.48
2022-10-01T03:34:20.246Z,95426.89
2022-10-01T03:36:47.983Z,95426.32
2022-10-01T03:39:15.716Z,95429.31
2022-10-01T03:41:42.624Z,95430.43
2022-10-01T03:44:10.100Z,95434.11
2022-10-01T03:46:36.977Z,95437.25
2022-10-01T03:49:03.857Z,95433.46
2022-10-01T03:51:31.709Z,95436.56
2022-10-01T03:53:59.006Z,95439.11
2022-10-01T03:56:28.581Z,95430.83
2022-10-01T03:58:55.534Z,95435.94
2022-10-01T04:01:22.840Z,95439.73
2022-10-01T04:03:49.784Z,95443.87
2022-10-01T04:06:16.690Z,95445.19
2022-10-01T04:08:44.070Z,95445.16
2022-10-01T04:11:11.198Z,95447.66
2022-10-01T04:13:38.241Z,95448.54
2022-10-01T04:16:06.476Z,95446.14
2022-10-01T04:18:34.761Z,95451.27
2022-10-01T04:21:04.361Z,95452.66
2022-10-01T04:23:31.165Z,95455.14
2022-10-01T04:26:00.515Z,95455.59
2022-10-01T04:28:28.476Z,95460.59
2022-10-01T04:31:14.644Z,95462.42
2022-10-01T04:33:41.612Z,95466.45
2022-10-01T04:36:08.685Z,95464.11
2022-10-01T04:38:35.430Z,95471.03
2022-10-01T04:41:02.445Z,95474.36
2022-10-01T04:43:29.522Z,95472.73
2022-10-01T04:45:56.813Z,95479.44
2022-10-01T04:48:23.888Z,95478.17
2022-10-01T04:50:50.813Z,95481.30
2022-10-01T04:53:17.821Z,95480.29
2022-10-01T04:55:45.831Z,95484.61
2022-10-01T04:58:12.939Z,95484.33
2022-10-01T05:00:39.783Z,95479.55
2022-10-01T05:03:06.794Z,95478.52
2022-10-01T05:05:34.583Z,95478.90
2022-10-01T05:08:01.826Z,95484.90
2022-10-01T05:10:29.029Z,95486.24
2022-10-01T05:12:57.514Z,95485.57
2022-10-01T05:15:24.410Z,95485.12
2022-10-01T05:17:51.243Z,95482.20
2022-10-01T05:20:22.263Z,95485.22
2022-10-01T05:22:49.225Z,95481.75
2022-10-01T05:25:17.063Z,95483.27
2022-10-01T05:27:44.619Z,95482.34
2022-10-01T05:30:23.422Z,95485.71
2022-10-01T05:32:59.119Z,95483.76
2022-10-01T05:35:27.297Z,95484.88
2022-10-01T05:37:59.014Z,95485.56
2022-10-01T05:40:28.104Z,95486.52
2022-10-01T05:43:00.245Z,95480.29
2022-10-01T05:45:30.326Z,95480.38
2022-10-01T05:48:03.614Z,95478.05
2022-10-01T05:50:34.524Z,95477.57
2022-10-01T05:53:02.773Z,95471.15
2022-10-01T05:55:34.207Z,95466.16
2022-10-01T05:58:05.706Z,95461.90
2022-10-01T06:00:35.578Z,95449.87
2022-10-01T06:03:05.569Z,95451.73
2022-10-01T06:05:37.358Z,95442.95
2022-10-01T06:08:09.404Z,95442.87
2022-10-01T06:10:37.071Z,95445.02
2022-10-01T06:13:06.509Z,95451.48
2022-10-01T06:15:37.423Z,95450.56
2022-10-01T06:18:06.772Z,95453.23
2022-10-01T06:20:35.748Z,95449.94
2022-10-01T06:23:09.762Z,95451.34
2022-10-01T06:25:38.816Z,95443.64
2022-10-01T06:28:08.246Z,95441.17
2022-10-01T06:30:38.241Z,95444.43
2022-10-01T06:33:07.945Z,95437.50
2022-10-01T06:35:41.099Z,95434.07
2022-10-01T06:38:09.155Z,95429.27
2022-10-01T06:40:37.536Z,95426.89
2022-10-01T06:43:08.200Z,95422.42
2022-10-01T06:45:40.889Z,95415.27
2022-10-01T06:48:14.092Z,95413.40
2022-10-01T06:50:44.374Z,95406.89
2022-10-01T06:53:14.619Z,95407.54
2022-10-01T08:05:17.871Z,95407.02
2022-10-01T08:07:47.261Z,95409.46
2022-10-01T08:10:17.365Z,95407.96
2022-10-01T08:12:46.418Z,95402.79
2022-10-01T08:15:17.419Z,95399.29
2022-10-01T08:17:45.312Z,95395.48
2022-10-01T08:20:15.436Z,95389.04
2022-10-01T08:22:47.453Z,95385.61
2022-10-01T08:25:15.948Z,95380.43
2022-10-01T08:56:46.255Z,95354.45
2022-10-01T08:59:31.172Z,95349.99
2022-10-01T09:01:59.173Z,95352.23
2022-10-01T09:04:28.946Z,95351.97
2022-10-01T09:07:23.330Z,95345.99
2022-10-01T09:10:20.215Z,95344.78
2022-10-01T09:13:09.221Z,95341.83
2022-10-01T09:15:47.175Z,95342.06
2022-10-01T09:18:27.669Z,95336.55
2022-10-01T09:20:58.223Z,95329.55
2022-10-01T09:23:30.810Z,95329.02
2022-10-01T09:26:00.204Z,95323.59
2022-10-01T09:28:34.621Z,95325.55
2022-10-01T09:31:21.871Z,95320.86
2022-10-01T09:34:08.579Z,95315.76
2022-10-01T09:37:04.375Z,95312.42
2022-10-01T09:40:01.209Z,95307.40
2022-10-01T09:42:31.444Z,95312.64
2022-10-01T09:44:59.904Z,95312.23
2022-10-01T09:47:28.295Z,95310.30
2022-10-01T09:50:00.292Z,95315.70
2022-10-01T09:52:38.148Z,95311.91
2022-10-01T09:55:18.256Z,95313.86
2022-10-01T09:58:10.876Z,95314.42
2022-10-01T10:00:40.504Z,95308.16
2022-10-01T10:03:08.103Z,95305.91
2022-10-01T10:05:47.799Z,95304.45
2022-10-01T10:08:20.867Z,95299.73
2022-10-01T10:10:58.218Z,95300.48
2022-10-01T10:13:37.550Z,95293.48
2022-10-01T10:16:26.107Z,95295.56
2022-10-01T10:19:10.290Z,95293.80
2022-10-01T10:21:37.777Z,95294.95
2022-10-01T10:24:31.018Z,95293.52
2022-10-01T10:27:01.355Z,95290.70
2022-10-01T10:29:31.190Z,95295.23
2022-10-01T10:32:26.914Z,95291.36
2022-10-01T10:35:02.609Z,95289.00
2022-10-01T10:37:38.106Z,95283.83
2022-10-01T10:40:07.800Z,95282.22
2022-10-01T10:42:38.405Z,95279.85
2022-10-01T10:45:17.035Z,95272.66
2022-10-01T10:47:48.736Z,95269.11
2022-10-01T10:50:29.866Z,95260.04
2022-10-01T10:52:57.658Z,95259.84
2022-10-01T10:55:30.513Z,95259.08
2022-10-01T10:58:11.266Z,95258.84
2022-10-01T11:00:52.260Z,95251.39
2022-10-01T11:03:27.751Z,95241.65
2022-10-01T11:06:09.084Z,95231.52
2022-10-01T11:08:38.682Z,95226.40
2022-10-01T11:12:10.693Z,95220.81
2022-10-01T11:15:06.369Z,95210.70
2022-10-01T11:17:54.724Z,95205.92
2022-10-01T11:20:29.684Z,95202.03
2022-10-01T11:23:29.462Z,95202.39
2022-10-01T11:26:34.010Z,95196.17
2022-10-01T11:29:03.855Z,95197.54
2022-10-01T11:31:37.169Z,95191.04
2022-10-01T11:34:10.747Z,95184.98
2022-10-01T11:37:00.339Z,95175.21
2022-10-01T11:39:32.708Z,95171.52
2022-10-01T11:42:27.428Z,95160.85
2022-10-01T11:45:06.806Z,95152.30
2022-10-01T11:47:47.468Z,95152.65
2022-10-01T11:50:21.055Z,95154.77
2022-10-01T11:53:05.699Z,95149.08
2022-10-01T11:56:13.812Z,95143.24
2022-10-01T11:59:00.209Z,95143.07
2022-10-01T12:01:31.822Z,95141.90
2022-10-01T12:04:12.199Z,95138.23
2022-10-01T12:06:54.351Z,95135.58
2022-10-01T12:09:36.197Z,95134.36
2022-10-01T12:12:10.380Z,95128.21
2022-10-01T12:14:43.964Z,95121.96
2022-10-01T12:17:38.130Z,95123.20
2022-10-01T12:20:32.571Z,95124.71
2022-10-01T12:23:04.113Z,95121.23
2022-10-01T12:25:48.730Z,95124.84
2022-10-01T12:28:26.205Z,95122.89
2022-10-01T12:31:19.053Z,95119.85
2022-10-01T12:34:04.076Z,95118.85
2022-10-01T12:36:55.231Z,95112.34
2022-10-01T12:40:03.602Z,95108.58
2022-10-01T12:43:05.338Z,95101.14
2022-10-01T12:45:49.245Z,95097.45
2022-10-01T12:48:39.541Z,95084.88
2022-10-01T12:51:36.604Z,95075.45
2022-10-01T12:54:26.007Z,95078.42
2022-10-01T12:57:01.975Z,95078.28
2022-10-01T12:59:40.565Z,95064.89
2022-10-01T13:02:33.825Z,95058.22
2022-10-01T13:05:26.342Z,95050.33
2022-10-01T13:07:56.375Z,95054.83
2022-10-01T13:10:26.405Z,95059.04
2022-10-01T13:13:16.832Z,95063.94
2022-10-01T13:15:49.445Z,95067.36
2022-10-01T13:18:35.600Z,95067.70
2022-10-01T13:21:14.659Z,95067.92
2022-10-01T13:24:38.112Z,95066.64
2022-10-01T13:27:30.950Z,95071.86
2022-10-01T13:30:24.222Z,95070.27
2022-10-01T13:33:05.114Z,95070.40
2022-10-01T13:35:39.086Z,95071.80
2022-10-01T13:38:40.327Z,95067.61
2022-10-01T13:41:25.247Z,95065.98
2022-10-01T13:43:58.902Z,95060.70
2022-10-01T13:46:35.038Z,95056.06
2022-10-01T13:49:16.901Z,95052.80
2022-10-01T13:51:45.615Z,95050.20
2022-10-01T13:54:24.847Z,95045.55
2022-10-01T13:56:52.173Z,95041.42
2022-10-01T13:59:35.418Z,95041.91
2022-10-01T14:02:23.299Z,95037.73
2022-10-01T14:04:51.735Z,95037.61
2022-10-01T14:07:27.578Z,95037.77
2022-10-01T14:10:00.016Z,95033.77
2022-10-01T14:12:53.219Z,95028.59
2022-10-01T14:15:48.536Z,95026.02
2022-10-01T14:18:21.174Z,95023.90
2022-10-01T14:21:08.427Z,95018.47
2022-10-01T14:24:09.946Z,95014.60
2022-10-01T14:26:58.881Z,95014.98
2022-10-01T14:29:50.696Z,95011.34
2022-10-01T14:32:36.872Z,95007.94
2022-10-01T14:35:38.808Z,95004.20
2022-10-01T14:38:15.141Z,95001.77
2022-10-01T14:40:46.621Z,94996.28
2022-10-01T14:43:28.668Z,94992.29
2022-10-01T14:45:58.282Z,94989.89
2022-10-01T14:48:28.615Z,94983.48
2022-10-01T14:50:58.736Z,94980.60
2022-10-01T14:53:28.586Z,94978.86
2022-10-01T14:55:59.132Z,94971.27
2022-10-01T14:58:38.159Z,94968.50
2022-10-01T15:01:06.147Z,94960.52
2022-10-01T15:03:41.610Z,94960.67
2022-10-01T15:06:17.539Z,94951.91
2022-10-01T15:09:06.327Z,94936.83
2022-10-01T15:11:34.402Z,94919.63
2022-10-01T15:14:05.947Z,94916.20
2022-10-01T15:16:35.817Z,94918.55
2022-10-01T15:19:08.879Z,94913.36
2022-10-01T15:21:48.412Z,94907.45
2022-10-01T15:24:20.271Z,94907.86
2022-10-01T15:26:49.219Z,94909.27
2022-10-01T15:29:18.247Z,94903.65
2022-10-01T15:31:48.283Z,94903.36
2022-10-01T15:34:20.887Z,94905.76
2022-10-01T15:36:49.802Z,94906.83
2022-10-01T15:39:33.974Z,94902.83
2022-10-01T15:42:08.519Z,94901.97
2022-10-01T15:44:38.410Z,94897.46
2022-10-01T15:47:21.914Z,94902.64
2022-10-01T15:50:16.150Z,94913.83
2022-10-01T15:52:49.340Z,94929.30
2022-10-01T15:55:58.969Z,94939.19
2022-10-01T15:58:34.561Z,94958.35
2022-10-01T16:01:11.860Z,94993.08
2022-10-01T16:04:11.732Z,95019.41
2022-10-01T16:06:45.622Z,95038.10
2022-10-01T16:09:23.851Z,95037.45
2022-10-01T16:12:03.513Z,95042.73
2022-10-01T16:14:55.708Z,95043.98
2022-10-01T16:17:32.328Z,95041.88
2022-10-01T16:20:22.963Z,95037.73
2022-10-01T16:22:50.115Z,95023.92
2022-10-01T16:25:32.112Z,95017.69
2022-10-01T16:28:05.534Z,95015.36
2022-10-01T16:30:33.691Z,95010.44
2022-10-01T16:33:04.645Z,95004.56
2022-10-01T16:35:35.161Z,95001.20
2022-10-01T16:38:07.767Z,95006.08
2022-10-01T16:40:39.884Z,95016.05
2022-10-01T16:43:08.809Z,95025.84
2022-10-01T16:45:42.569Z,95025.41
2022-10-01T16:48:15.755Z,95016.56
2022-10-01T16:50:45.862Z,95008.00
2022-10-01T16:53:15.721Z,95002.66
2022-10-01T16:55:43.225Z,94999.77
2022-10-01T16:58:10.609Z,94996.80
2022-10-01T17:00:38.918Z,94992.55
2022-10-01T17:03:09.518Z,94986.41
2022-10-01T17:05:37.805Z,94985.92
2022-10-01T17:08:13.405Z,94992.10
2022-10-01T17:10:57.219Z,94990.35
2022-10-01T17:13:32.235Z,94987.55
2022-10-01T17:16:01.169Z,94983.73
2022-10-01T17:18:28.128Z,94983.23
2022-10-01T17:20:55.707Z,94980.27
2022-10-01T17:23:24.532Z,94979.40
2022-10-01T17:25:52.520Z,94972.80
2022-10-01T17:28:21.069Z,94975.48
2022-10-01T17:30:48.888Z,94972.91
2022-10-01T17:33:22.649Z,94977.52
2022-10-01T17:35:55.113Z,94974.70
2022-10-01T17:38:22.898Z,94970.16
2022-10-01T17:40:56.151Z,94965.92
2022-10-01T17:43:24.638Z,94956.57
2022-10-01T17:45:57.412Z,94946.14
2022-10-01T17:48:26.592Z,94948.10
2022-10-01T17:51:02.950Z,94955.90
2022-10-01T17:53:35.967Z,94960.47
2022-10-01T17:56:08.934Z,94953.06
2022-10-01T17:58:38.027Z,94945.19
2022-10-01T18:01:31.509Z,94940.09
2022-10-01T18:04:03.360Z,94928.33
2022-10-01T18:06:33.378Z,94906.30
2022-10-01T18:09:01.563Z,94880.41
2022-10-01T18:11:29.286Z,94880.95
2022-10-01T18:13:57.801Z,94871.74
2022-10-01T18:16:25.894Z,94865.86
2022-10-01T18:21:46.126Z,94864.16
2022-10-01T18:24:14.896Z,94879.25
2022-10-01T18:26:45.096Z,94885.38
2022-10-01T18:29:23.595Z,94876.67
2022-10-01T18:32:16.061Z,94870.66
2022-10-01T18:34:58.403Z,94865.39
2022-10-01T18:37:41.044Z,94863.68
2022-10-01T18:40:16.942Z,94857.89
2022-10-01T18:43:12.538Z,94853.76
2022-10-01T18:46:02.938Z,94854.16
2022-10-01T18:49:04.176Z,94852.30
2022-10-01T18:51:57.054Z,94858.11
2022-10-01T18:54:26.786Z,94861.67
2022-10-01T18:56:59.234Z,94865.34
2022-10-01T18:59:41.687Z,94872.44
2022-10-01T19:02:39.670Z,94874.77
2022-10-01T19:05:42.862Z,94870.34
2022-10-01T19:08:39.423Z,94863.33
2022-10-01T19:11:29.209Z,94865.46
2022-10-01T19:14:08.702Z,94868.27
2022-10-01T19:16:53.650Z,94860.80
2022-10-01T19:19:20.468Z,94864.41
2022-10-01T19:21:53.527Z,94873.17
2022-10-01T19:24:51.265Z,94879.17
2022-10-01T19:27:44.377Z,94873.95
2022-10-01T19:30:15.306Z,94874.21
2022-10-01T19:33:02.744Z,94869.70
2022-10-01T19:35:38.718Z,94858.09
2022-10-01T19:38:29.107Z,94849.83
2022-10-01T19:41:12.480Z,94841.56
2022-10-01T19:43:54.884Z,94847.88
2022-10-01T19:46:37.180Z,94841.10
2022-10-01T19:49:20.347Z,94836.17
2022-10-01T19:52:02.011Z,94840.70
2022-10-01T19:54:32.836Z,94849.31
2022-10-01T19:57:13.665Z,94850.41
2022-10-01T19:59:41.040Z,94851.97
2022-10-01T20:02:26.738Z,94855.09
2022-10-01T20:05:04.241Z,94852.23
2022-10-01T20:07:46.686Z,94852.45
2022-10-01T20:10:16.757Z,94863.64
2022-10-01T20:13:09.089Z,94868.77
2022-10-01T20:15:54.839Z,94871.55
2022-10-01T20:18:31.186Z,94866.25
2022-10-01T20:21:39.035Z,94860.20
2022-10-01T20:24:08.849Z,94861.80
2022-10-01T20:26:44.728Z,94866.16
2022-10-01T20:29:48.511Z,94865.82
2022-10-01T20:32:23.067Z,94869.14
2022-10-01T20:35:02.499Z,94866.94
2022-10-01T20:37:48.147Z,94854.23
2022-10-01T20:40:45.332Z,94857.87
2022-10-01T20:43:17.791Z,94853.63
2022-10-01T20:45:51.923Z,94857.12
2022-10-01T20:48:27.227Z,94853.77
2022-10-01T20:51:46.254Z,94856.02
2022-10-01T20:54:22.456Z,94863.55
2022-10-01T20:57:04.954Z,94858.14
2022-10-01T20:59:50.978Z,94855.33
2022-10-01T21:02:38.284Z,94862.69
2022-10-01T21:05:15.569Z,94861.06
2022-10-01T21:08:21.047Z,94853.41
2022-10-01T21:10:51.855Z,94846.38
2022-10-01T21:13:30.672Z,94844.95
2022-10-01T21:16:11.764Z,94836.70
2022-10-01T21:18:47.138Z,94834.92
2022-10-01T21:21:27.607Z,94843.27
2022-10-01T21:24:15.124Z,94848.43
2022-10-01T21:27:09.585Z,94848.74
2022-10-01T21:30:02.932Z,94842.23
2022-10-01T21:32:53.739Z,94836.64
2022-10-01T21:35:32.995Z,94841.86
2022-10-01T21:38:16.301Z,94850.75
2022-10-01T21:41:07.294Z,94842.23
2022-10-01T21:43:36.993Z,94837.45
2022-10-01T21:46:37.395Z,94841.73
2022-10-01T21:49:16.482Z,94832.30
2022-10-01T21:52:09.993Z,94834.66
2022-10-01T21:55:08.515Z,94827.74
2022-10-01T21:57:44.368Z,94822.70
2022-10-01T22:00:18.284Z,94825.54
2022-10-01T22:03:10.878Z,94826.50
2022-10-01T22:05:53.159Z,94827.94
2022-10-01T22:08:26.249Z,94831.40
2022-10-01T22:11:02.409Z,94829.02
2022-10-01T22:13:34.196Z,94833.97
2022-10-01T22:16:06.635Z,94842.89
2022-10-01T22:18:43.043Z,94842.37
2022-10-01T22:21:22.585Z,94847.44
2022-10-01T22:23:58.692Z,94852.33
2022-10-01T22:26:31.193Z,94844.54
2022-10-01T22:29:01.452Z,94838.25
2022-10-01T22:31:34.375Z,94833.51
2022-10-01T22:34:12.314Z,94835.35
2022-10-01T22:36:49.788Z,94822.01
2022-10-01T22:39:35.269Z,94813.02
2022-10-01T22:42:14.123Z,94813.46
2022-10-01T22:44:43.419Z,94809.45
2022-10-01T22:47:10.303Z,94807.70
2022-10-01T22:50:10.930Z,94805.48
2022-10-01T22:52:50.924Z,94811.75
2022-10-01T22:55:24.096Z,94819.54
2022-10-01T22:58:17.882Z,94815.83
2022-10-01T23:01:09.728Z,94812.48
2022-10-01T23:04:12.399Z,94813.23
2022-10-01T23:06:57.394Z,94813.98
2022-10-01T23:09:38.315Z,94820.20
2022-10-01T23:12:14.445Z,94828.22
2022-10-01T23:15:04.104Z,94842.63
2022-10-01T23:17:42.695Z,94866.02
2022-10-01T23:20:29.900Z,94874.36
2022-10-01T23:23:02.592Z,94881.02
2022-10-01T23:26:06.691Z,94884.82
2022-10-01T23:28:44.799Z,94892.56
2022-10-01T23:31:44.792Z,94896.05
2022-10-01T23:34:20.870Z,94904.55
2022-10-01T23:37:26.210Z,94911.97
2022-10-01T23:40:07.084Z,94906.54
2022-10-01T23:42:59.630Z,94905.39
2022-10-01T23:45:47.415Z,94908.81
2022-10-01T23:48:22.777Z,94913.47
2022-10-01T23:51:07.496Z,94918.62
2022-10-01T23:53:54.584Z,94925.17
2022-10-01T23:56:48.183Z,94929.34
2022-10-01T23:59:28.185Z,94931.91
